Time;durP1;ratioP1;P1;durP2;ratioP2;P2;SDS_P1;SDS_P2;PMS_P1;PMS_P2;Temp;Humidity;BMP_temperature;BMP_pressure;BME280_temperature;BME280_humidity;BME280_pressure;Samples;Min_cycle;Max_cycle;Signal;HPM_P1;HPM_P2
2023/07/26 00:00:29;;;;;;;3.63;3.33;;;22.20;56.60;;;;;;5052625;28;20716;-77
2023/07/26 00:02:56;;;;;;;3.50;3.22;;;22.20;56.70;;;;;;5054109;28;20286;-77
2023/07/26 00:05:24;;;;;;;3.25;3.05;;;22.20;56.80;;;;;;5035833;28;20203;-77
2023/07/26 00:07:51;;;;;;;3.63;3.33;;;22.20;56.80;;;;;;5052463;28;20592;-77
2023/07/26 00:10:18;;;;;;;3.40;3.10;;;22.20;56.80;;;;;;5052319;28;20219;-77
2023/07/26 00:12:45;;;;;;;3.78;3.47;;;22.20;56.70;;;;;;5052349;28;20661;-77
2023/07/26 00:15:12;;;;;;;3.22;3.00;;;22.20;56.70;;;;;;5052596;28;20187;-77
2023/07/26 00:17:38;;;;;;;4.38;3.28;;;22.20;56.70;;;;;;5052662;28;20195;-77
2023/07/26 00:20:07;;;;;;;3.58;3.38;;;22.20;56.80;;;;;;5053777;28;20199;-77
2023/07/26 00:22:35;;;;;;;3.70;3.40;;;22.20;56.80;;;;;;5053121;28;20210;-77
2023/07/26 00:25:02;;;;;;;3.55;3.30;;;22.20;56.80;;;;;;5052290;28;20226;-77
2023/07/26 00:27:29;;;;;;;4.13;3.83;;;22.20;56.80;;;;;;5075604;28;20199;-77
2023/07/26 00:29:56;;;;;;;5.07;3.55;;;22.20;56.60;;;;;;5067696;28;20211;-78
2023/07/26 00:32:23;;;;;;;3.75;3.45;;;22.10;56.60;;;;;;5036503;28;20195;-78
2023/07/26 00:34:50;;;;;;;4.20;3.90;;;22.20;56.60;;;;;;5053283;28;20195;-78
2023/07/26 00:37:17;;;;;;;3.88;3.45;;;22.20;56.50;;;;;;5035962;28;20671;-78
2023/07/26 00:39:45;;;;;;;3.90;3.60;;;22.20;56.60;;;;;;5052001;28;20564;-78
2023/07/26 00:42:17;;;;;;;3.53;3.30;;;22.20;56.60;;;;;;5052005;28;20191;-78
2023/07/26 00:44:44;;;;;;;3.83;3.53;;;22.10;56.60;;;;;;5051809;28;20290;-78
2023/07/26 00:47:11;;;;;;;3.53;3.25;;;22.20;56.80;;;;;;5053436;28;20609;-78
2023/07/26 00:49:37;;;;;;;3.78;3.47;;;22.10;56.80;;;;;;5052109;28;20196;-78
2023/07/26 00:52:05;;;;;;;3.67;3.38;;;22.10;56.80;;;;;;5052745;28;20235;-78
2023/07/26 00:54:32;;;;;;;3.85;3.55;;;22.10;56.80;;;;;;5054635;28;20195;-78
2023/07/26 00:57:00;;;;;;;3.33;3.13;;;22.10;56.70;;;;;;5057017;28;20206;-78
2023/07/26 00:59:27;;;;;;;3.80;3.50;;;22.10;56.80;;;;;;5060851;28;20265;-78
2023/07/26 01:01:54;;;;;;;4.00;3.70;;;22.10;56.90;;;;;;5065678;28;20216;-78
2023/07/26 01:04:21;;;;;;;3.83;3.50;;;22.10;56.70;;;;;;5078656;28;20203;-78
2023/07/26 01:06:50;;;;;;;3.53;3.22;;;22.10;56.60;;;;;;5067980;28;20207;-78
2023/07/26 01:09:23;;;;;;;3.50;3.30;;;22.10;56.80;;;;;;5056180;28;20191;-78
2023/07/26 01:11:55;;;;;;;3.90;3.60;;;22.10;56.80;;;;;;5057356;28;20290;-78
2023/07/26 01:14:28;;;;;;;3.33;3.13;;;22.10;56.80;;;;;;5056269;28;20179;-78
2023/07/26 01:16:55;;;;;;;3.80;3.47;;;22.10;56.90;;;;;;5056043;28;20192;-78
2023/07/26 01:19:22;;;;;;;3.40;3.17;;;22.10;56.90;;;;;;5056088;28;20226;-78
2023/07/26 01:21:51;;;;;;;3.72;3.42;;;22.10;57.00;;;;;;5056227;28;20306;-78
2023/07/26 01:24:18;;;;;;;3.80;3.50;;;22.10;56.90;;;;;;5052885;28;20191;-78
2023/07/26 01:26:44;;;;;;;3.80;3.60;;;22.10;56.90;;;;;;5077925;28;20226;-78
2023/07/26 01:29:11;;;;;;;3.55;3.30;;;22.10;56.90;;;;;;5078714;28;20305;-78
2023/07/26 01:31:39;;;;;;;3.45;3.25;;;22.10;56.90;;;;;;5060125;28;20227;-78
2023/07/26 01:34:06;;;;;;;3.20;3.00;;;22.10;57.00;;;;;;5056468;28;20191;-78
2023/07/26 01:36:33;;;;;;;3.38;3.17;;;22.10;57.00;;;;;;5055970;28;20250;-78
2023/07/26 01:39:02;;;;;;;3.42;3.22;;;22.10;57.00;;;;;;5055630;28;20202;-78
2023/07/26 01:41:29;;;;;;;3.20;3.00;;;22.10;57.00;;;;;;5055371;28;20215;-78
2023/07/26 01:43:56;;;;;;;3.30;3.10;;;22.10;57.10;;;;;;5055371;28;20191;-78
2023/07/26 01:46:23;;;;;;;3.45;3.15;;;22.10;57.10;;;;;;5055074;28;20199;-78
2023/07/26 01:48:50;;;;;;;4.22;3.65;;;22.10;57.00;;;;;;5054816;28;20271;-78
2023/07/26 01:51:17;;;;;;;3.13;2.90;;;22.00;56.90;;;;;;5054792;28;20224;-78
2023/07/26 01:53:47;;;;;;;3.40;3.10;;;22.00;56.90;;;;;;5055639;28;20199;-78
2023/07/26 01:56:15;;;;;;;2.90;2.70;;;22.00;56.90;;;;;;5054495;28;20201;-78
2023/07/26 01:58:42;;;;;;;3.03;2.83;;;22.00;56.70;;;;;;5054352;28;20208;-78
2023/07/26 02:01:09;;;;;;;3.28;2.97;;;22.00;56.80;;;;;;5038142;28;20731;-78
2023/07/26 02:03:36;;;;;;;3.60;2.92;;;22.00;56.80;;;;;;5054603;28;20191;-78
2023/07/26 02:06:03;;;;;;;3.17;2.97;;;22.00;56.70;;;;;;5054516;28;20188;-78
2023/07/26 02:08:30;;;;;;;3.65;3.28;;;22.00;56.80;;;;;;5038595;28;20206;-79
2023/07/26 02:10:57;;;;;;;2.97;2.78;;;22.00;56.70;;;;;;5038104;28;20223;-79
2023/07/26 02:13:25;;;;;;;3.10;2.80;;;22.00;56.70;;;;;;5054672;28;20202;-78
2023/07/26 02:15:53;;;;;;;3.15;2.95;;;22.00;56.70;;;;;;5054615;28;20234;-78
2023/07/26 02:18:20;;;;;;;4.15;2.78;;;22.00;57.30;;;;;;5054152;28;20203;-78
2023/07/26 02:20:47;;;;;;;2.67;2.50;;;22.00;56.80;;;;;;5054487;28;20238;-78
2023/07/26 02:23:14;;;;;;;3.30;3.10;;;22.00;56.70;;;;;;5054412;28;20196;-78
2023/07/26 02:25:41;;;;;;;3.10;2.85;;;22.00;56.80;;;;;;5054361;28;20199;-78
2023/07/26 02:28:09;;;;;;;3.38;2.75;;;22.00;56.80;;;;;;5054530;28;20199;-78
2023/07/26 02:30:37;;;;;;;2.97;2.78;;;22.00;56.80;;;;;;5054694;28;20226;-78
2023/07/26 02:33:05;;;;;;;3.40;3.10;;;22.00;56.70;;;;;;5054681;28;20196;-78
2023/07/26 02:35:32;;;;;;;3.13;2.92;;;22.00;56.80;;;;;;5037977;28;20199;-78
2023/07/26 02:37:59;;;;;;;2.83;2.60;;;22.00;56.70;;;;;;5053764;28;20565;-78
2023/07/26 02:40:26;;;;;;;3.00;2.80;;;22.00;56.70;;;;;;5053487;28;20218;-78
2023/07/26 02:42:53;;;;;;;3.15;2.95;;;21.90;56.60;;;;;;5053965;28;20282;-78
2023/07/26 02:45:20;;;;;;;3.10;2.80;;;21.90;56.70;;;;;;5036880;28;20569;-78
2023/07/26 02:47:49;;;;;;;3.08;2.78;;;21.90;56.70;;;;;;5053367;28;20202;-78
2023/07/26 02:50:16;;;;;;;3.00;2.78;;;21.90;56.80;;;;;;5053168;28;20234;-78
2023/07/26 02:52:43;;;;;;;3.05;2.78;;;21.90;56.70;;;;;;5053393;28;20195;-78
2023/07/26 02:55:10;;;;;;;2.70;2.50;;;21.90;56.90;;;;;;5053249;28;20210;-78
2023/07/26 02:57:37;;;;;;;3.05;2.85;;;21.90;56.80;;;;;;5053556;28;20291;-78
2023/07/26 03:00:05;;;;;;;3.33;2.38;;;21.90;56.80;;;;;;5053340;28;20618;-78
2023/07/26 03:02:32;;;;;;;3.15;2.85;;;21.90;56.90;;;;;;5053513;28;20206;-78
2023/07/26 03:05:00;;;;;;;2.65;2.50;;;21.90;56.80;;;;;;5053811;28;20195;-78
2023/07/26 03:07:28;;;;;;;2.67;2.47;;;21.90;56.80;;;;;;5053662;28;20684;-78
2023/07/26 03:09:55;;;;;;;2.45;2.35;;;21.90;56.60;;;;;;5053401;28;20222;-78
2023/07/26 03:12:23;;;;;;;2.88;2.60;;;21.90;57.30;;;;;;5053242;28;20339;-78
2023/07/26 03:14:50;;;;;;;2.95;2.67;;;21.90;56.70;;;;;;5052995;28;20226;-78
2023/07/26 03:17:17;;;;;;;2.42;2.15;;;21.90;56.50;;;;;;5052604;28;20204;-78
2023/07/26 03:19:45;;;;;;;2.50;2.30;;;21.90;56.50;;;;;;5052900;28;20538;-78
2023/07/26 03:22:13;;;;;;;2.78;2.40;;;22.00;56.80;;;;;;5052903;28;20658;-78
2023/07/26 03:24:40;;;;;;;2.70;2.50;;;22.00;56.40;;;;;;5052980;28;20712;-78
2023/07/26 03:27:08;;;;;;;3.22;2.80;;;22.10;56.20;;;;;;5053252;28;20219;-78
2023/07/26 03:29:35;;;;;;;2.80;2.60;;;22.10;56.30;;;;;;5052703;28;20222;-78
2023/07/26 03:32:02;;;;;;;2.97;2.70;;;22.20;56.20;;;;;;5052488;28;20674;-78
2023/07/26 03:34:29;;;;;;;2.25;2.10;;;22.20;56.00;;;;;;5036188;28;20219;-78
2023/07/26 03:36:56;;;;;;;2.70;2.50;;;22.20;56.10;;;;;;5053022;28;20215;-78
2023/07/26 03:39:25;;;;;;;2.53;2.33;;;22.20;56.00;;;;;;5052626;28;20203;-78
2023/07/26 03:41:53;;;;;;;2.35;2.17;;;22.20;55.80;;;;;;5052479;28;20234;-78
2023/07/26 03:44:20;;;;;;;2.97;2.28;;;22.20;55.80;;;;;;5052582;28;20290;-78
2023/07/26 03:46:49;;;;;;;2.30;2.10;;;22.20;55.80;;;;;;5052865;28;20202;-78
2023/07/26 03:49:16;;;;;;;2.00;1.90;;;22.20;55.70;;;;;;5052868;28;20601;-78
2023/07/26 03:51:43;;;;;;;2.60;2.38;;;22.30;55.80;;;;;;5052969;28;20651;-78
2023/07/26 03:54:10;;;;;;;2.92;2.40;;;22.30;55.70;;;;;;5073214;28;20203;-77
2023/07/26 03:56:39;;;;;;;2.55;2.35;;;22.20;55.50;;;;;;5076937;28;20191;-77
2023/07/26 03:59:05;;;;;;;2.40;2.20;;;22.20;55.60;;;;;;5062996;28;20289;-77
2023/07/26 04:01:33;;;;;;;2.55;2.35;;;22.30;55.60;;;;;;5053432;28;20276;-77
2023/07/26 04:04:00;;;;;;;2.42;2.22;;;22.30;55.60;;;;;;5053319;28;20195;-78
2023/07/26 04:06:27;;;;;;;2.42;2.17;;;22.30;55.60;;;;;;5052968;28;20205;-78
2023/07/26 04:08:55;;;;;;;2.08;1.98;;;22.20;55.40;;;;;;5052239;28;20214;-78
2023/07/26 04:11:22;;;;;;;2.13;2.03;;;22.30;55.40;;;;;;5052497;28;20219;-78
2023/07/26 04:13:51;;;;;;;2.53;2.33;;;22.30;55.40;;;;;;5052479;28;20195;-78
2023/07/26 04:16:20;;;;;;;2.35;2.15;;;22.30;55.40;;;;;;5052537;28;20283;-78
2023/07/26 04:18:47;;;;;;;2.78;2.47;;;22.20;55.50;;;;;;5052291;28;20253;-78
2023/07/26 04:21:15;;;;;;;2.10;1.90;;;22.30;55.70;;;;;;5052619;28;20207;-78
2023/07/26 04:23:42;;;;;;;2.28;2.17;;;22.20;55.60;;;;;;5054102;28;20191;-78
2023/07/26 04:26:09;;;;;;;2.33;2.13;;;22.20;55.60;;;;;;5053401;28;20203;-78
2023/07/26 04:28:37;;;;;;;2.55;2.30;;;22.20;55.40;;;;;;5053083;28;20757;-78
2023/07/26 04:31:05;;;;;;;3.10;2.30;;;22.20;55.60;;;;;;5056162;28;20218;-78
2023/07/26 04:33:32;;;;;;;2.20;2.00;;;22.20;55.60;;;;;;5057056;28;20187;-78
2023/07/26 04:36:00;;;;;;;2.28;2.17;;;22.20;55.90;;;;;;5055599;28;20218;-78
2023/07/26 04:38:26;;;;;;;3.03;2.30;;;22.20;55.60;;;;;;5055900;28;20188;-78
2023/07/26 04:40:53;;;;;;;2.95;2.10;;;22.20;55.60;;;;;;5055490;28;20681;-78
2023/07/26 04:43:20;;;;;;;2.22;2.13;;;22.20;55.40;;;;;;5055467;28;20535;-78
2023/07/26 04:45:48;;;;;;;2.15;1.95;;;22.20;55.30;;;;;;5055573;28;20279;-78
2023/07/26 04:48:17;;;;;;;2.30;2.20;;;22.20;55.30;;;;;;5039289;28;20286;-78
2023/07/26 04:50:44;;;;;;;2.40;2.20;;;22.20;55.20;;;;;;5055642;28;20211;-78
2023/07/26 04:53:11;;;;;;;1.92;1.83;;;22.20;55.20;;;;;;5055278;28;20212;-78
2023/07/26 04:55:43;;;;;;;2.28;2.08;;;22.30;55.40;;;;;;5055968;28;20546;-78
2023/07/26 04:58:10;;;;;;;2.30;2.10;;;22.30;55.20;;;;;;5055492;28;20637;-78
2023/07/26 05:00:38;;;;;;;2.53;2.13;;;22.30;55.30;;;;;;5055472;28;20222;-78
2023/07/26 05:03:06;;;;;;;2.40;2.20;;;22.20;55.20;;;;;;5055403;28;20215;-78
2023/07/26 05:05:34;;;;;;;3.55;2.10;;;22.30;55.20;;;;;;5055750;28;20680;-78
2023/07/26 05:08:02;;;;;;;3.28;2.13;;;22.30;55.30;;;;;;5055549;28;20382;-78
2023/07/26 05:10:29;;;;;;;2.28;2.10;;;22.30;55.20;;;;;;5056609;28;20215;-78
2023/07/26 05:12:56;;;;;;;2.40;2.20;;;22.30;55.30;;;;;;5056420;28;20558;-78
2023/07/26 05:15:23;;;;;;;1.70;1.60;;;22.20;55.30;;;;;;5056809;28;20203;-78
2023/07/26 05:17:51;;;;;;;2.22;2.08;;;22.20;55.40;;;;;;5055635;28;20204;-78
2023/07/26 05:20:18;;;;;;;2.28;1.98;;;22.20;55.40;;;;;;5057114;28;20219;-78
2023/07/26 05:22:47;;;;;;;2.08;1.98;;;22.20;55.40;;;;;;5055853;28;20204;-78
2023/07/26 05:25:14;;;;;;;2.20;2.00;;;22.20;55.40;;;;;;5055433;28;20214;-78
2023/07/26 05:27:41;;;;;;;2.05;1.85;;;22.20;55.50;;;;;;5055477;28;20626;-78
2023/07/26 05:30:09;;;;;;;2.25;2.15;;;22.20;55.50;;;;;;5055513;28;20226;-79
2023/07/26 05:32:36;;;;;;;2.10;2.00;;;22.20;56.10;;;;;;5055588;28;20237;-79
2023/07/26 05:35:04;;;;;;;2.03;1.92;;;22.20;55.30;;;;;;5039015;28;20200;-79
2023/07/26 05:37:34;;;;;;;2.13;1.98;;;22.20;55.30;;;;;;5056539;28;20199;-78
2023/07/26 05:40:03;;;;;;;2.00;1.90;;;22.20;55.40;;;;;;5054717;28;20654;-78
2023/07/26 05:42:30;;;;;;;2.10;2.00;;;22.20;55.40;;;;;;5056735;28;20271;-78
2023/07/26 05:44:57;;;;;;;2.00;1.90;;;22.20;55.50;;;;;;5055196;28;20574;-78
2023/07/26 05:47:25;;;;;;;2.17;2.00;;;22.10;55.50;;;;;;5056944;28;20294;-78
2023/07/26 05:49:51;;;;;;;2.10;1.90;;;22.20;55.60;;;;;;5055329;28;20191;-78
2023/07/26 05:52:19;;;;;;;2.05;1.95;;;22.20;55.70;;;;;;5055437;28;20226;-78
2023/07/26 05:54:46;;;;;;;2.25;1.80;;;22.10;55.60;;;;;;5055091;28;20238;-78
2023/07/26 05:57:15;;;;;;;2.00;1.80;;;22.20;55.70;;;;;;5055316;28;20203;-78
2023/07/26 05:59:42;;;;;;;1.88;1.70;;;22.20;55.80;;;;;;5055246;28;20211;-78
2023/07/26 06:02:09;;;;;;;1.80;1.70;;;22.20;55.60;;;;;;5055854;28;20681;-78
2023/07/26 06:04:36;;;;;;;1.90;1.80;;;22.30;55.60;;;;;;5054473;28;20241;-78
2023/07/26 06:07:04;;;;;;;1.95;1.75;;;22.30;55.50;;;;;;5054072;28;20238;-78
2023/07/26 06:09:31;;;;;;;2.00;1.90;;;22.30;55.40;;;;;;5054145;28;20370;-78
2023/07/26 06:11:58;;;;;;;1.80;1.70;;;22.40;55.40;;;;;;5053811;28;20243;-78
2023/07/26 06:14:27;;;;;;;1.70;1.60;;;22.40;55.30;;;;;;5054024;28;20227;-78
2023/07/26 06:16:54;;;;;;;2.30;1.83;;;22.40;55.20;;;;;;5053788;28;20261;-78
2023/07/26 06:19:22;;;;;;;1.80;1.70;;;22.50;55.10;;;;;;5053898;28;20191;-78
2023/07/26 06:21:49;;;;;;;1.70;1.60;;;22.60;55.00;;;;;;5053650;28;20235;-78
2023/07/26 06:24:17;;;;;;;1.92;1.70;;;22.70;54.80;;;;;;5037253;28;20253;-78
2023/07/26 06:26:44;;;;;;;2.88;1.77;;;22.90;54.60;;;;;;5053616;28;20203;-78
2023/07/26 06:29:11;;;;;;;1.88;1.77;;;23.00;54.80;;;;;;5054726;28;20210;-78
2023/07/26 06:31:40;;;;;;;1.90;1.80;;;23.10;54.00;;;;;;5054366;28;20222;-78
2023/07/26 06:34:07;;;;;;;1.80;1.70;;;23.20;53.80;;;;;;5054074;28;20207;-78
2023/07/26 06:36:34;;;;;;;1.80;1.70;;;23.30;53.60;;;;;;5053990;28;20207;-78
2023/07/26 06:39:01;;;;;;;2.45;1.52;;;23.30;53.40;;;;;;5053817;28;20222;-78
2023/07/26 06:41:28;;;;;;;1.70;1.60;;;23.40;53.10;;;;;;5053620;28;20219;-78
2023/07/26 06:43:55;;;;;;;1.60;1.50;;;23.50;53.00;;;;;;5053745;28;20238;-78
2023/07/26 06:46:22;;;;;;;1.70;1.60;;;23.50;53.00;;;;;;5053651;28;20200;-78
2023/07/26 06:48:50;;;;;;;3.15;1.88;;;23.50;53.50;;;;;;5053567;28;20201;-78
2023/07/26 06:51:17;;;;;;;1.80;1.70;;;23.60;52.70;;;;;;5054264;28;20635;-78
2023/07/26 06:53:44;;;;;;;1.60;1.50;;;23.60;52.70;;;;;;5053549;28;20215;-78
2023/07/26 06:56:13;;;;;;;1.65;1.55;;;23.60;52.80;;;;;;5053271;28;20253;-78
2023/07/26 06:58:40;;;;;;;1.95;1.58;;;23.60;52.70;;;;;;5053958;28;20199;-78
2023/07/26 07:01:16;;;;;;;1.88;1.40;;;23.60;52.80;;;;;;5038125;28;20230;-78
2023/07/26 07:03:43;;;;;;;1.70;1.60;;;23.60;52.60;;;;;;5054027;28;20534;-78
2023/07/26 07:06:11;;;;;;;1.70;1.60;;;23.70;52.60;;;;;;5054414;28;20245;-78
2023/07/26 07:08:39;;;;;;;2.08;1.63;;;23.70;52.50;;;;;;5054211;28;20222;-78
2023/07/26 07:11:06;;;;;;;1.75;1.65;;;23.70;52.50;;;;;;5053544;28;20215;-78
2023/07/26 07:13:35;;;;;;;1.65;1.55;;;23.70;52.50;;;;;;5052927;28;20215;-78
2023/07/26 07:16:03;;;;;;;1.65;1.55;;;23.60;52.50;;;;;;5053787;28;20248;-78
2023/07/26 07:18:30;;;;;;;1.52;1.42;;;23.60;52.50;;;;;;5054592;28;20245;-78
2023/07/26 07:21:00;;;;;;;1.85;1.75;;;23.60;52.70;;;;;;5053817;28;20219;-78
2023/07/26 07:23:28;;;;;;;1.73;1.63;;;23.60;52.70;;;;;;5077186;28;20194;-78
2023/07/26 07:25:55;;;;;;;2.25;1.50;;;23.60;52.70;;;;;;5076980;28;20180;-78
2023/07/26 07:28:23;;;;;;;1.52;1.42;;;23.60;52.70;;;;;;5066801;28;20266;-78
2023/07/26 07:30:50;;;;;;;2.03;1.60;;;23.60;52.70;;;;;;5054237;28;20230;-79
2023/07/26 07:33:17;;;;;;;1.77;1.60;;;23.50;52.70;;;;;;5052819;28;20575;-79
2023/07/26 07:35:44;;;;;;;1.60;1.50;;;23.50;52.70;;;;;;5052950;28;20673;-79
2023/07/26 07:38:11;;;;;;;1.60;1.50;;;23.50;52.70;;;;;;5036963;28;20235;-79
2023/07/26 07:40:39;;;;;;;1.90;1.65;;;23.50;52.90;;;;;;5036406;28;20531;-79
2023/07/26 07:43:07;;;;;;;1.90;1.73;;;23.40;52.90;;;;;;5052955;28;20195;-79
2023/07/26 07:45:39;;;;;;;1.70;1.60;;;23.40;52.90;;;;;;5052963;28;20205;-79
2023/07/26 07:48:07;;;;;;;1.83;1.60;;;23.40;52.90;;;;;;5053076;28;20218;-79
2023/07/26 07:50:34;;;;;;;1.80;1.70;;;23.30;52.90;;;;;;5054087;28;20650;-79
2023/07/26 07:53:02;;;;;;;1.73;1.60;;;23.30;52.80;;;;;;5052939;28;20310;-79
2023/07/26 07:55:31;;;;;;;1.60;1.50;;;23.20;52.90;;;;;;5053581;28;20207;-79
2023/07/26 07:58:01;;;;;;;1.88;1.58;;;23.30;53.10;;;;;;5053231;28;20195;-79
2023/07/26 08:00:28;;;;;;;1.92;1.48;;;23.30;53.20;;;;;;5054353;28;20247;-79
2023/07/26 08:02:55;;;;;;;1.70;1.60;;;23.30;53.20;;;;;;5054415;28;20196;-79
2023/07/26 08:05:24;;;;;;;1.58;1.48;;;23.20;53.10;;;;;;5057856;28;20749;-79
2023/07/26 08:07:52;;;;;;;1.60;1.50;;;23.30;53.20;;;;;;5057807;28;20202;-79
2023/07/26 08:10:19;;;;;;;1.80;1.70;;;23.20;53.20;;;;;;5057337;28;20215;-79
2023/07/26 08:12:46;;;;;;;2.08;1.48;;;23.20;53.20;;;;;;5058656;28;20584;-79
2023/07/26 08:15:15;;;;;;;1.90;1.63;;;23.20;53.20;;;;;;5057645;28;20272;-79
2023/07/26 08:17:42;;;;;;;2.50;1.60;;;23.20;53.30;;;;;;5058895;28;20503;-79
2023/07/26 08:20:11;;;;;;;1.67;1.58;;;23.20;53.30;;;;;;5058729;28;20246;-79
2023/07/26 08:22:38;;;;;;;1.67;1.58;;;23.10;53.30;;;;;;5058141;28;20210;-79
2023/07/26 08:25:07;;;;;;;1.63;1.52;;;23.20;53.40;;;;;;5057359;28;20207;-78
2023/07/26 08:27:34;;;;;;;2.63;1.58;;;23.10;53.40;;;;;;5057555;28;20223;-78
2023/07/26 08:30:01;;;;;;;1.77;1.60;;;23.10;53.40;;;;;;5057278;28;20561;-78
2023/07/26 08:32:30;;;;;;;1.50;1.40;;;23.10;53.40;;;;;;5040607;28;20208;-78
2023/07/26 08:34:57;;;;;;;1.73;1.63;;;23.10;53.40;;;;;;5056680;28;20191;-78
2023/07/26 08:37:24;;;;;;;1.60;1.50;;;23.00;53.50;;;;;;5056940;28;20241;-78
2023/07/26 08:39:51;;;;;;;2.22;1.60;;;23.10;53.50;;;;;;5056132;28;20266;-78
2023/07/26 08:42:18;;;;;;;1.90;1.70;;;23.00;53.50;;;;;;5056305;28;20195;-78
2023/07/26 08:44:48;;;;;;;1.75;1.60;;;23.00;53.50;;;;;;5056320;28;20199;-78
2023/07/26 08:47:16;;;;;;;1.88;1.73;;;23.00;53.50;;;;;;5056255;28;20199;-78
2023/07/26 08:49:44;;;;;;;1.48;1.38;;;23.00;53.50;;;;;;5056385;28;20538;-78
2023/07/26 08:52:12;;;;;;;1.55;1.45;;;23.00;53.30;;;;;;5056118;28;20708;-78
2023/07/26 08:54:39;;;;;;;1.40;1.30;;;23.00;53.50;;;;;;5056267;28;20199;-78
2023/07/26 08:57:06;;;;;;;1.60;1.45;;;23.00;53.50;;;;;;5056197;28;20253;-78
2023/07/26 08:59:33;;;;;;;1.50;1.40;;;23.00;53.50;;;;;;5056320;28;20263;-78
2023/07/26 09:02:01;;;;;;;1.45;1.35;;;23.00;53.50;;;;;;5040038;28;20223;-78
2023/07/26 09:04:28;;;;;;;1.50;1.40;;;23.00;53.40;;;;;;5056543;28;20195;-78
2023/07/26 09:07:00;;;;;;;1.65;1.50;;;23.10;53.50;;;;;;5055810;28;20207;-78
2023/07/26 09:09:27;;;;;;;1.50;1.40;;;23.10;53.50;;;;;;5056596;28;20249;-78
2023/07/26 09:11:54;;;;;;;1.77;1.48;;;23.10;53.50;;;;;;5055375;28;20223;-78
2023/07/26 09:14:27;;;;;;;1.95;1.30;;;23.10;53.30;;;;;;5054663;28;20306;-79
2023/07/26 09:16:56;;;;;;;1.40;1.30;;;23.10;53.20;;;;;;5055645;28;20188;-79
2023/07/26 09:19:28;;;;;;;1.30;1.20;;;23.10;53.10;;;;;;5055313;28;20348;-79
2023/07/26 09:21:59;;;;;;;1.40;1.30;;;23.20;53.10;;;;;;5055162;28;20215;-79
2023/07/26 09:24:30;;;;;;;1.30;1.20;;;23.20;53.00;;;;;;5038971;28;20278;-79
2023/07/26 09:27:03;;;;;;;1.10;1.10;;;23.30;53.00;;;;;;5055435;28;20207;-79
2023/07/26 09:29:30;;;;;;;1.40;1.30;;;23.30;52.90;;;;;;5055278;28;20195;-79
2023/07/26 09:31:57;;;;;;;1.52;1.30;;;23.30;52.90;;;;;;5055754;28;20226;-79
2023/07/26 09:34:25;;;;;;;1.50;1.40;;;23.40;52.90;;;;;;5055414;28;20215;-79
2023/07/26 09:36:52;;;;;;;1.50;1.40;;;23.50;52.90;;;;;;5055203;28;20202;-79
2023/07/26 09:39:21;;;;;;;1.30;1.20;;;23.40;52.70;;;;;;5055278;28;20231;-78
2023/07/26 09:41:49;;;;;;;1.30;1.20;;;23.40;52.70;;;;;;5056051;28;20212;-78
2023/07/26 09:44:18;;;;;;;1.30;1.20;;;23.40;52.70;;;;;;5038263;28;20196;-78
2023/07/26 09:46:50;;;;;;;1.27;1.15;;;23.40;52.60;;;;;;5054816;28;20203;-78
2023/07/26 09:49:17;;;;;;;1.15;1.13;;;23.50;52.60;;;;;;5055593;28;20242;-78
2023/07/26 09:51:44;;;;;;;1.35;1.30;;;23.50;52.50;;;;;;5054538;28;20223;-78
2023/07/26 09:54:11;;;;;;;1.70;1.10;;;23.50;52.40;;;;;;5054564;28;20216;-78
2023/07/26 09:56:41;;;;;;;1.13;1.02;;;23.50;52.30;;;;;;5039708;28;20512;-78
2023/07/26 09:59:09;;;;;;;1.27;1.13;;;23.60;52.40;;;;;;5056070;28;20207;-80
2023/07/26 10:01:39;;;;;;;0.98;0.98;;;23.60;52.40;;;;;;5055075;28;20220;-79
2023/07/26 10:04:09;;;;;;;1.25;1.25;;;23.60;52.40;;;;;;5054637;28;20195;-79
2023/07/26 10:06:36;;;;;;;1.88;1.20;;;23.60;52.30;;;;;;5054140;28;20199;-79
2023/07/26 10:09:03;;;;;;;1.00;1.00;;;23.60;52.20;;;;;;5038103;28;20199;-79
2023/07/26 10:11:30;;;;;;;1.05;1.05;;;23.70;52.00;;;;;;5053965;28;20234;-79
2023/07/26 10:13:59;;;;;;;1.40;1.30;;;23.80;51.80;;;;;;5038538;28;20239;-79
2023/07/26 10:16:27;;;;;;;1.13;1.10;;;23.90;51.70;;;;;;5054037;28;20204;-79
2023/07/26 10:18:55;;;;;;;1.30;1.20;;;24.00;52.20;;;;;;5053875;28;20199;-79
2023/07/26 10:21:22;;;;;;;1.30;1.20;;;24.00;51.30;;;;;;5053958;28;20224;-79
2023/07/26 10:23:49;;;;;;;1.00;1.00;;;24.10;51.50;;;;;;5054254;28;20194;-79
2023/07/26 10:26:17;;;;;;;1.08;1.08;;;24.20;51.70;;;;;;5036741;28;20254;-79
2023/07/26 10:28:44;;;;;;;0.90;0.90;;;24.30;51.00;;;;;;5054191;28;20289;-79
2023/07/26 10:31:13;;;;;;;1.40;1.30;;;24.30;50.90;;;;;;5054504;28;20251;-79
2023/07/26 10:33:45;;;;;;;1.02;1.02;;;24.30;50.80;;;;;;5038194;28;20242;-79
2023/07/26 10:36:12;;;;;;;1.20;1.10;;;24.30;50.70;;;;;;5055962;28;20267;-79
2023/07/26 10:38:40;;;;;;;0.95;0.90;;;24.30;50.70;;;;;;5054363;28;20252;-78
2023/07/26 10:41:28;;;;;;;1.02;1.02;;;24.30;50.70;;;;;;5054771;28;20553;-78
2023/07/26 10:44:07;;;;;;;1.00;0.98;;;24.30;50.80;;;;;;5054707;28;20195;-78
2023/07/26 10:46:48;;;;;;;0.82;0.82;;;24.30;50.80;;;;;;5055919;28;20195;-78
2023/07/26 10:49:20;;;;;;;1.02;1.02;;;24.30;50.90;;;;;;5055182;28;20290;-78
2023/07/26 10:51:56;;;;;;;1.13;1.02;;;24.30;50.80;;;;;;5059310;28;20203;-78
2023/07/26 10:54:37;;;;;;;1.08;1.08;;;24.30;50.80;;;;;;5077072;28;20211;-78
2023/07/26 10:57:15;;;;;;;1.10;1.10;;;24.30;50.80;;;;;;5074625;28;20199;-78
2023/07/26 10:59:59;;;;;;;1.20;1.10;;;24.30;50.70;;;;;;5053570;28;20268;-78
2023/07/26 11:02:45;;;;;;;1.30;1.02;;;24.30;50.70;;;;;;5053857;28;20255;-78
2023/07/26 11:05:15;;;;;;;0.82;0.82;;;24.30;50.60;;;;;;5053439;28;20283;-78
2023/07/26 11:07:57;;;;;;;1.00;1.00;;;24.40;50.60;;;;;;5053337;28;20192;-78
2023/07/26 11:10:25;;;;;;;1.05;1.05;;;24.40;50.50;;;;;;5054373;28;20285;-78
2023/07/26 11:13:05;;;;;;;0.80;0.80;;;24.40;50.40;;;;;;5054215;28;20192;-78
2023/07/26 11:15:32;;;;;;;1.30;1.20;;;24.40;50.40;;;;;;5053124;28;20194;-78
2023/07/26 11:18:00;;;;;;;1.00;1.00;;;24.40;50.40;;;;;;5052924;28;20210;-78
2023/07/26 11:20:27;;;;;;;0.90;0.90;;;24.50;50.40;;;;;;5054749;28;20218;-78
2023/07/26 11:22:54;;;;;;;1.20;1.10;;;24.50;50.30;;;;;;5053364;28;20199;-78
2023/07/26 11:25:21;;;;;;;1.13;1.00;;;24.50;50.20;;;;;;5053369;28;20662;-78
2023/07/26 11:27:48;;;;;;;1.30;1.08;;;24.60;50.20;;;;;;5036817;28;20218;-78
2023/07/26 11:30:16;;;;;;;0.90;0.90;;;24.60;50.10;;;;;;5054463;28;20218;-78
2023/07/26 11:32:46;;;;;;;1.17;0.93;;;24.60;50.10;;;;;;5053466;28;20646;-78
2023/07/26 11:35:15;;;;;;;1.10;1.00;;;24.60;50.00;;;;;;5052966;28;20716;-78
2023/07/26 11:37:51;;;;;;;0.90;0.90;;;24.60;50.00;;;;;;5053191;28;20210;-78
2023/07/26 11:40:18;;;;;;;1.02;1.02;;;24.60;50.00;;;;;;5053896;28;20215;-78
2023/07/26 11:42:45;;;;;;;1.08;1.00;;;24.60;49.90;;;;;;5053253;28;20619;-78
2023/07/26 11:45:13;;;;;;;1.30;1.20;;;24.70;50.00;;;;;;5053336;28;20199;-78
2023/07/26 11:47:40;;;;;;;1.35;1.20;;;24.70;49.90;;;;;;5053215;28;20199;-78
2023/07/26 11:50:09;;;;;;;1.10;1.10;;;24.70;49.80;;;;;;5053501;28;20319;-78
2023/07/26 11:52:38;;;;;;;1.00;1.00;;;24.70;49.80;;;;;;5052981;28;20192;-78
2023/07/26 11:55:07;;;;;;;1.00;1.00;;;24.70;49.70;;;;;;5052829;28;20215;-78
2023/07/26 11:57:34;;;;;;;0.95;0.90;;;24.70;49.50;;;;;;5052977;28;20685;-78
2023/07/26 12:00:04;;;;;;;1.30;1.20;;;24.70;49.60;;;;;;5053499;28;20203;-78
2023/07/26 12:02:39;;;;;;;0.95;0.95;;;24.70;49.50;;;;;;5054467;28;20175;-78
2023/07/26 12:05:19;;;;;;;1.30;0.98;;;24.80;49.60;;;;;;5053071;28;20210;-78
2023/07/26 12:07:49;;;;;;;1.23;1.20;;;24.80;49.60;;;;;;5052704;28;20203;-78
2023/07/26 12:10:17;;;;;;;1.48;1.20;;;24.80;49.50;;;;;;5052893;28;20276;-78
2023/07/26 12:12:44;;;;;;;1.17;1.10;;;24.90;49.40;;;;;;5052817;28;20199;-78
2023/07/26 12:15:11;;;;;;;0.98;0.98;;;24.90;49.40;;;;;;5053872;28;20211;-78
2023/07/26 12:17:54;;;;;;;1.02;1.00;;;24.90;49.30;;;;;;5052400;28;20207;-78
2023/07/26 12:20:22;;;;;;;1.08;1.08;;;24.90;49.20;;;;;;5052338;28;20223;-78
2023/07/26 12:22:54;;;;;;;1.20;1.10;;;24.90;49.20;;;;;;5052455;28;20670;-78
2023/07/26 12:25:21;;;;;;;1.73;1.25;;;24.90;49.10;;;;;;5052490;28;20260;-78
2023/07/26 12:27:49;;;;;;;1.15;1.10;;;25.00;49.10;;;;;;5036319;28;20549;-78
2023/07/26 12:30:17;;;;;;;0.90;0.90;;;25.00;49.20;;;;;;5053287;28;20286;-78
2023/07/26 12:32:45;;;;;;;1.30;1.30;;;25.00;49.10;;;;;;5052327;28;20191;-78
2023/07/26 12:35:20;;;;;;;1.08;1.08;;;25.00;49.00;;;;;;5052177;28;20223;-78
2023/07/26 12:37:49;;;;;;;1.50;1.40;;;25.00;49.00;;;;;;5052172;28;20199;-78
2023/07/26 12:40:19;;;;;;;1.40;1.20;;;25.00;49.00;;;;;;5036952;28;20219;-78
2023/07/26 12:42:46;;;;;;;1.20;1.10;;;25.00;48.90;;;;;;5052278;28;20223;-78
2023/07/26 12:45:13;;;;;;;1.30;1.20;;;25.00;48.90;;;;;;5051979;28;20195;-78
2023/07/26 12:47:41;;;;;;;1.23;1.13;;;25.10;48.90;;;;;;5051752;28;20273;-78
2023/07/26 12:50:09;;;;;;;1.20;1.20;;;25.10;48.90;;;;;;5036542;28;20325;-78
2023/07/26 12:52:37;;;;;;;1.30;1.20;;;25.00;48.80;;;;;;5057014;28;20200;-78